Data for 02/07/2013

Time Sea-Level Adjusted Pressure Absolute Pressure Temperature Relative Humidity Dew Point   
(mb) (inHg) (mb) (inHg) (C) (F) (%) (C) (F)
00:05 1019 30.09 848 25.04 -3.2 26.2 55 -11.1 12.1
00:10 1019 30.09 848 25.04 -3.1 26.5 55 -10.9 12.5
00:15 1019 30.09 848 25.04 -3.4 25.8 57 -10.7 12.7
00:20 1019 30.09 848 25.04 -3.9 25 58 -11 12.3
00:25 1019 30.09 848 25.04 -3.8 25.1 56 -11.3 11.7
00:30 1019 30.09 848 25.04 -3.3 26.1 54 -11.4 11.6
00:35 1019 30.09 848 25.04 -2.9 26.7 54 -11.1 12.1
00:40 1019 30.09 848 25.04 -2.9 26.9 54 -11 12.2
00:45 1019 30.09 848 25.04 -2.9 26.8 55 -10.8 12.5
00:50 1019 30.09 848 25.04 -2.9 26.8 54 -10.9 12.3
00:55 1019 30.09 848 25.04 -2.7 27.1 53 -11 12.1
01:00 1019 30.09 848 25.04 -2.8 27 53 -11.1 12
01:05 1019 30.09 848 25.04 -2.5 27.4 51 -11.3 11.6
01:10 1019 30.09 848 25.04 -2.1 28.3 48 -11.6 11
01:15 1019 30.09 848 25.04 -2.2 28.1 51 -11 12.3
01:20 1019 30.09 848 25.04 -3.2 26.3 55 -11 12.1
01:25 1019 30.09 848 25.04 -3.7 25.3 56 -11.2 11.8
01:30 1019 30.09 848 25.04 -3.9 25 55 -11.7 11
01:35 1019 30.09 848 25.04 -3.4 25.8 53 -11.6 11.1
01:40 1019 30.09 848 25.04 -3.2 26.2 53 -11.5 11.3
01:45 1019 30.09 848 25.04 -3.3 26 53 -11.7 11
01:50 1019 30.09 848 25.04 -3.7 25.3 56 -11.3 11.6
01:55 1019 30.09 848 25.04 -4.3 24.3 57 -11.5 11.3
02:00 1019 30.09 848 25.04 -3.8 25.2 55 -11.5 11.3
02:05 1019 30.09 848 25.04 -3.8 25.2 55 -11.5 11.3
02:10 1019 30.09 848 25.04 -3.9 24.9 56 -11.4 11.4
02:15 1019 30.09 848 25.04 -4.1 24.7 56 -11.7 11
02:20 1018 30.06 848 25.04 -4.1 24.7 57 -11.4 11.5
02:25 1018 30.06 848 25.04 -4.5 23.9 58 -11.5 11.3
02:30 1018 30.06 848 25.04 -4.6 23.7 57 -11.8 10.8
02:35 1019 30.09 848 25.04 -4.5 23.9 57 -11.7 10.9
02:40 1019 30.09 848 25.04 -4.3 24.2 56 -11.8 10.8
02:45 1018 30.06 848 25.04 -4.1 24.6 55 -11.8 10.8
02:50 1018 30.06 848 25.04 -3.9 25 55 -11.6 11.1
02:55 1018 30.06 848 25.04 -4.2 24.5 56 -11.6 11.1
03:00 1018 30.06 848 25.04 -4.5 23.9 57 -11.7 10.9
03:05 1018 30.06 848 25.04 -4.6 23.7 57 -11.9 10.7
03:10 1018 30.06 848 25.04 -4.5 23.9 57 -11.8 10.7
03:15 1018 30.06 848 25.04 -4.3 24.2 55 -12 10.4
03:20 1018 30.06 848 25.04 -4.4 24.1 56 -11.8 10.7
03:25 1018 30.06 848 25.04 -4.6 23.8 57 -11.8 10.8
03:30 1018 30.06 847 25.01 -4.6 23.7 57 -11.9 10.6
03:35 1018 30.06 847 25.01 -4.6 23.6 57 -11.9 10.6
03:40 1018 30.06 847 25.01 -4.7 23.5 57 -12 10.3
03:45 1018 30.06 847 25.01 -4.8 23.4 57 -12.1 10.2
03:50 1018 30.06 847 25.01 -4.8 23.4 57 -12 10.5
03:55 1018 30.06 847 25.01 -4.7 23.5 58 -11.8 10.8
04:00 1018 30.06 847 25.01 -4.3 24.2 56 -11.7 10.9
04:05 1018 30.06 847 25.01 -3.9 25 55 -11.6 11.2
04:10 1018 30.06 847 25.01 -3.8 25.1 56 -11.4 11.5
04:15 1018 30.06 847 25.01 -4 24.8 57 -11.4 11.5
04:20 1018 30.06 847 25.01 -4.1 24.7 57 -11.4 11.5
04:25 1018 30.06 847 25.01 -4 24.8 57 -11.4 11.5
04:30 1018 30.06 847 25.01 -3.9 25 56 -11.4 11.5
04:35 1018 30.06 847 25.01 -3.8 25.1 56 -11.4 11.5
04:40 1017 30.03 847 25.01 -3.7 25.3 55 -11.5 11.3
04:45 1017 30.03 847 25.01 -3.6 25.5 56 -11.2 11.8
04:50 1017 30.03 846 24.98 -3.6 25.6 55 -11.3 11.7
04:55 1017 30.03 846 24.98 -3.5 25.6 55 -11.2 11.8
05:00 1017 30.03 846 24.98 -3.5 25.6 55 -11.3 11.7
05:05 1017 30.03 846 24.98 -3.6 25.6 55 -11.3 11.6
05:10 1017 30.03 846 24.98 -4 24.8 57 -11.3 11.7
05:15 1017 30.03 846 24.98 -4.2 24.5 57 -11.4 11.5
05:20 1017 30.03 846 24.98 -3.9 24.9 56 -11.6 11.2
05:25 1017 30.03 846 24.98 -3.9 24.9 55 -11.6 11.1
05:30 1017 30.03 846 24.98 -3.9 24.9 56 -11.5 11.2
05:35 1017 30.03 846 24.98 -3.9 25.1 56 -11.5 11.3
05:40 1017 30.03 846 24.98 -3.7 25.4 54 -11.7 11
05:45 1017 30.03 846 24.98 -3.6 25.6 53 -11.7 10.9
05:50 1017 30.03 846 24.98 -3.6 25.6 54 -11.6 11.1
05:55 1017 30.03 846 24.98 -3.8 25.2 54 -11.7 10.9
06:00 1017 30.03 846 24.98 -3.9 25 54 -12 10.4
06:05 1017 30.03 846 24.98 -3.9 25 54 -12 10.4
06:10 1017 30.03 846 24.98 -4 24.8 54 -11.9 10.6
06:15 1017 30.03 846 24.98 -3.8 25.1 53 -12 10.4
06:20 1017 30.03 846 24.98 -3.8 25.1 53 -12 10.4
06:25 1017 30.03 846 24.98 -3.8 25.1 53 -12 10.5
06:30 1017 30.03 846 24.98 -3.7 25.4 53 -11.9 10.6
06:35 1017 30.03 846 24.98 -3.5 25.7 52 -11.9 10.5
06:40 1017 30.03 846 24.98 -3.7 25.4 53 -11.9 10.5
06:45 1017 30.03 846 24.98 -4.1 24.6 54 -12.2 10
06:50 1017 30.03 846 24.98 -4.9 23.3 55 -12.6 9.3
06:55 1017 30.03 846 24.98 -4.9 23.2 54 -12.7 9.1
07:00 1017 30.03 846 24.98 -4.7 23.6 54 -12.7 9.2
07:05 1017 30.03 846 24.98 -4.7 23.5 54 -12.6 9.3
07:10 1017 30.03 846 24.98 -4.8 23.4 55 -12.5 9.5
07:15 1016 30 846 24.98 -4.8 23.4 54 -12.6 9.3
07:20 1017 30.03 846 24.98 -4.7 23.6 55 -12.5 9.5
07:25 1016 30 846 24.98 -4.6 23.8 55 -12.3 9.9
07:30 1017 30.03 846 24.98 -4.3 24.3 54 -12.2 10
07:35 1016 30 846 24.98 -4.1 24.7 53 -12.2 10
07:40 1016 30 846 24.98 -4 24.7 54 -12.1 10.2
07:45 1016 30 846 24.98 -4.2 24.4 55 -12 10.5
07:50 1016 30 846 24.98 -4.3 24.2 56 -11.9 10.6
07:55 1016 30 846 24.98 -4.5 23.9 56 -12 10.4
08:00 1016 30 846 24.98 -4.4 24.1 56 -11.9 10.5
08:05 1016 30 846 24.98 -4.1 24.6 58 -11.3 11.6
08:10 1017 30.03 846 24.98 -4.1 24.7 57 -11.4 11.4
08:15 1016 30 846 24.98 -4.3 24.3 59 -11.1 12
08:20 1017 30.03 846 24.98 -4.4 24.2 61 -10.9 12.4
08:25 1017 30.03 846 24.98 -4.2 24.4 62 -10.6 13
08:30 1017 30.03 846 24.98 -4.3 24.3 63 -10.3 13.5
08:35 1017 30.03 846 24.98 -4.5 24 64 -10.3 13.4
08:40 1017 30.03 846 24.98 -4.7 23.6 65 -10.4 13.3
08:45 1017 30.03 846 24.98 -5 23.1 66 -10.3 13.5
08:50 1017 30.03 846 24.98 -5.1 22.8 66 -10.4 13.2
08:55 1017 30.03 846 24.98 -5.1 22.8 67 -10.4 13.3
09:00 1017 30.03 846 24.98 -5 23 65 -10.6 12.9
09:05 1017 30.03 846 24.98 -5.1 22.8 64 -10.9 12.5
09:10 1017 30.03 846 24.98 -5.1 22.8 65 -10.8 12.6
09:15 1017 30.03 846 24.98 -5 23.1 64 -10.8 12.5
09:20 1017 30.03 846 24.98 -5.1 22.9 65 -10.8 12.6
09:25 1017 30.03 846 24.98 -5.1 22.8 65 -10.8 12.6
09:30 1017 30.03 846 24.98 -5 23 64 -10.9 12.4
09:35 1017 30.03 846 24.98 -5 23.1 61 -11.4 11.5
09:40 1017 30.03 846 24.98 -4.9 23.2 59 -11.7 11
09:45 1017 30.03 846 24.98 -4.8 23.5 60 -11.4 11.4
09:50 1017 30.03 846 24.98 -4.9 23.2 57 -12.1 10.3
09:55 1017 30.03 846 24.98 -4.9 23.3 56 -12.5 9.6
10:00 1017 30.03 846 24.98 -4.5 23.8 55 -12.4 9.8
10:05 1017 30.03 846 24.98 -4 24.8 54 -12 10.4
10:10 1017 30.03 846 24.98 -4 24.8 54 -12.1 10.3
10:15 1017 30.03 846 24.98 -3.8 25.1 52 -12.3 9.8
10:20 1017 30.03 846 24.98 -3.8 25.2 52 -12.3 9.9
10:25 1017 30.03 846 24.98 -3.6 25.5 51 -12.3 9.9
10:30 1017 30.03 846 24.98 -3.2 26.2 51 -12 10.4
10:35 1017 30.03 846 24.98 -2.8 27 51 -11.6 11.1
10:40 1017 30.03 846 24.98 -2.6 27.4 50 -11.6 11.2
10:45 1017 30.03 846 24.98 -2.2 28 53 -10.6 12.9
10:50 1017 30.03 846 24.98 -2 28.4 54 -10.1 13.9
10:55 1017 30.03 846 24.98 -2 28.4 52 -10.6 13
11:00 1017 30.03 846 24.98 -1.8 28.8 51 -10.5 13.1
11:05 1017 30.03 846 24.98 -1.5 29.3 49 -10.8 12.6
11:10 1017 30.03 846 24.98 -1.6 29.1 49 -11 12.1
11:15 1017 30.03 846 24.98 -1.6 29.1 50 -10.8 12.5
11:20 1017 30.03 846 24.98 -1.7 28.9 49 -11 12.2
11:25 1017 30.03 846 24.98 -1.6 29.1 49 -11.1 12
11:30 1017 30.03 846 24.98 -1.7 29 49 -11 12.2
11:35 1017 30.03 846 24.98 -1.5 29.3 48 -11.2 11.8
11:40 1017 30.03 846 24.98 -1.6 29.1 48 -11.1 12
11:45 1017 30.03 846 24.98 -1.6 29.2 49 -11 12.3
11:50 1017 30.03 846 24.98 -1.5 29.3 49 -11 12.3
11:55 1017 30.03 846 24.98 -1 30.2 48 -10.7 12.7
12:00 1016 30 846 24.98 -0.8 30.5 49 -10.2 13.6
12:05 1016 30 846 24.98 -1 30.2 47 -11.1 12.1
12:10 1017 30.03 846 24.98 -0.6 31 46 -10.9 12.5
12:15 1016 30 846 24.98 -0.6 31 46 -10.8 12.6
12:20 1016 30 846 24.98 -0.4 31.3 45 -11 12.2
12:25 1016 30 846 24.98 -0 31.9 44 -11 12.2
12:30 1016 30 846 24.98 -0.2 31.7 46 -10.5 13.2
12:35 1016 30 846 24.98 -0.2 31.6 44 -11 12.1
12:40 1016 30 846 24.98 -0.1 31.8 44 -10.9 12.4
12:45 1016 30 846 24.98 -0 32 44 -10.9 12.4
12:50 1016 30 845 24.95 -0.3 31.5 47 -10.4 13.4
12:55 1016 30 845 24.95 0.1 32.3 46 -10.2 13.7
13:00 1016 30 845 24.95 0.8 33.4 44 -10.1 13.7
13:05 1016 30 845 24.95 1.2 34.2 42 -10.2 13.6
13:10 1016 30 845 24.95 1.6 34.8 40 -10.5 13.1
13:15 1016 30 845 24.95 1.4 34.5 40 -10.9 12.4
13:20 1016 30 845 24.95 1.6 34.9 39 -10.9 12.4
13:25 1016 30 845 24.95 1.5 34.8 39 -11.1 12.1
13:30 1016 30 845 24.95 1.6 34.9 38 -11.3 11.6
13:35 1016 30 845 24.95 1.7 35.1 36 -11.8 10.8
13:40 1016 30 845 24.95 1.5 34.8 37 -11.8 10.8
13:45 1016 30 845 24.95 1.1 34 42 -10.4 13.2
13:50 1016 30 845 24.95 1.2 34.1 38 -11.6 11.1
13:55 1015 29.97 845 24.95 1.8 35.3 38 -11.2 11.9
14:00 1015 29.97 845 24.95 1.8 35.2 39 -10.7 12.8
14:05 1015 29.97 845 24.95 2.4 36.4 35 -11.7 11
14:10 1015 29.97 845 24.95 3.5 38.3 33 -11.4 11.5
14:15 1015 29.97 844 24.92 3.8 38.8 33 -11 12.2
14:20 1015 29.97 844 24.92 3.5 38.4 36 -10.1 13.9
14:25 1015 29.97 844 24.92 3.3 38 34 -11.2 11.9
14:30 1015 29.97 844 24.92 3 37.4 36 -10.7 12.8
14:35 1015 29.97 844 24.92 3.3 38 34 -11.1 12.1
14:40 1015 29.97 844 24.92 3.3 38 33 -11.5 11.3
14:45 1015 29.97 844 24.92 3.7 38.7 34 -10.7 12.7
14:50 1015 29.97 844 24.92 3.9 39.1 34 -10.7 12.8
14:55 1015 29.97 844 24.92 3.9 39 35 -10.1 13.8
15:00 1015 29.97 844 24.92 4.1 39.3 33 -10.7 12.8
15:05 1014 29.94 844 24.92 4.6 40.3 32 -10.9 12.4
15:10 1014 29.94 844 24.92 4.8 40.6 34 -10 14
15:15 1014 29.94 844 24.92 4.1 39.4 35 -10.1 13.9
15:20 1014 29.94 843 24.89 4.1 39.3 33 -10.9 12.4
15:25 1014 29.94 843 24.89 3.4 38 36 -10.5 13.2
15:30 1014 29.94 843 24.89 3.6 38.4 34 -10.9 12.4
15:35 1014 29.94 843 24.89 4.3 39.8 32 -10.9 12.3
15:40 1014 29.94 843 24.89 4.5 40.1 33 -10.3 13.5
15:45 1014 29.94 843 24.89 4.7 40.5 33 -10.3 13.4
15:50 1014 29.94 843 24.89 4.5 40.2 34 -10.1 13.8
15:55 1014 29.94 843 24.89 4.3 39.7 36 -9.7 14.6
16:00 1014 29.94 843 24.89 4 39.1 36 -9.9 14.1
16:05 1014 29.94 843 24.89 3.8 38.9 33 -11.2 11.8
16:10 1014 29.94 843 24.89 3.3 37.9 35 -10.8 12.5
16:15 1014 29.94 843 24.89 2.6 36.7 38 -10.3 13.5
16:20 1014 29.94 843 24.89 2 35.6 39 -10.4 13.3
16:25 1014 29.94 843 24.89 1.9 35.4 39 -10.8 12.5
16:30 1014 29.94 843 24.89 2.4 36.2 36 -11.2 11.9
16:35 1014 29.94 843 24.89 2.3 36.2 37 -11 12.2
16:40 1014 29.94 843 24.89 2.1 35.8 35 -11.9 10.6
16:45 1014 29.94 843 24.89 2.4 36.3 34 -11.7 10.9
16:50 1014 29.94 843 24.89 2.5 36.5 34 -11.9 10.7
16:55 1014 29.94 843 24.89 2.5 36.5 35 -11.6 11.1
17:00 1014 29.94 843 24.89 2.5 36.5 35 -11.4 11.5
17:05 1014 29.94 843 24.89 2.4 36.3 40 -9.9 14.1
17:10 1014 29.94 843 24.89 2.2 36 40 -10.1 13.9
17:15 1014 29.94 843 24.89 1.8 35.2 41 -10.3 13.5
17:20 1014 29.94 843 24.89 1.6 34.9 40 -10.6 12.9
17:25 1014 29.94 843 24.89 1.4 34.6 46 -8.9 16
17:30 1014 29.94 843 24.89 1.1 34.1 43 -10.2 13.7
17:35 1014 29.94 843 24.89 0.8 33.5 49 -8.7 16.3
17:40 1014 29.94 843 24.89 0.4 32.7 47 -9.6 14.6
17:45 1014 29.94 843 24.89 0.3 32.6 49 -9.2 15.4
17:50 1014 29.94 843 24.89 0.2 32.4 49 -9.3 15.2
17:55 1014 29.94 843 24.89 0.4 32.7 48 -9.4 15.1
18:00 1014 29.94 843 24.89 0.7 33.2 47 -9.4 15
18:05 1014 29.94 843 24.89 0.7 33.2 47 -9.4 15
18:10 1014 29.94 843 24.89 0.7 33.2 46 -9.7 14.5
18:15 1014 29.94 843 24.89 0.5 32.9 47 -9.4 15
18:20 1014 29.94 843 24.89 0.4 32.8 48 -9.4 15.1
18:25 1014 29.94 843 24.89 0.3 32.5 48 -9.4 15.1
18:30 1014 29.94 843 24.89 0.2 32.4 49 -9.4 15.1
18:35 1014 29.94 843 24.89 0.2 32.3 51 -8.9 16
18:40 1014 29.94 843 24.89 0.1 32.1 51 -9 15.8
18:45 1014 29.94 843 24.89 0.1 32.2 51 -8.9 16
18:50 1014 29.94 843 24.89 0.1 32.1 52 -8.7 16.4
18:55 1014 29.94 843 24.89 0.1 32.1 52 -8.7 16.4
19:00 1014 29.94 843 24.89 -0 32 53 -8.5 16.8
19:05 1014 29.94 843 24.89 -0.2 31.7 53 -8.6 16.5
19:10 1014 29.94 843 24.89 -0.2 31.6 52 -8.8 16.1
19:15 1014 29.94 843 24.89 -0.2 31.6 53 -8.8 16.2
19:20 1014 29.94 843 24.89 -0.2 31.7 52 -8.8 16.2
19:25 1014 29.94 843 24.89 -0.3 31.4 53 -8.9 16.1
19:30 1014 29.94 843 24.89 -0.2 31.6 47 -10.2 13.7
19:35 1014 29.94 843 24.89 -0.2 31.7 46 -10.4 13.3
19:40 1014 29.94 843 24.89 -0.2 31.7 50 -9.5 15
19:45 1014 29.94 843 24.89 -0.3 31.5 51 -9.2 15.4
19:50 1014 29.94 843 24.89 -0.6 30.9 58 -7.9 17.8
19:55 1014 29.94 843 24.89 -1 30.2 58 -8.3 17.1
20:00 1014 29.94 843 24.89 -1.1 30.1 53 -9.6 14.7
20:05 1014 29.94 843 24.89 -0.7 30.7 50 -9.9 14.3
20:10 1014 29.94 843 24.89 -0.4 31.3 46 -10.8 12.6
20:15 1014 29.94 843 24.89 -0.3 31.5 47 -10.1 13.7
20:20 1014 29.94 843 24.89 -0.4 31.2 50 -9.5 14.9
20:25 1013 29.91 843 24.89 -0.7 30.8 49 -10.1 13.8
20:30 1013 29.91 842 24.86 -0.4 31.4 49 -9.7 14.6
20:35 1013 29.91 842 24.86 -0.3 31.4 52 -9.1 15.6
20:40 1013 29.91 842 24.86 -0.5 31.2 53 -8.8 16.1
20:45 1013 29.91 843 24.89 -0.6 30.9 52 -9.2 15.4
20:50 1013 29.91 843 24.89 -0.3 31.5 50 -9.5 14.8
20:55 1013 29.91 843 24.89 -0.2 31.7 51 -9 15.8
21:00 1013 29.91 842 24.86 -0.3 31.5 52 -9.1 15.6
21:05 1013 29.91 842 24.86 -0.3 31.5 52 -9 15.7
21:10 1013 29.91 843 24.89 -0.3 31.4 51 -9.3 15.3
21:15 1013 29.91 843 24.89 -0.1 31.9 49 -9.7 14.6
21:20 1013 29.91 843 24.89 0.1 32.2 48 -9.6 14.8
21:25 1013 29.91 843 24.89 0.2 32.3 49 -9.3 15.2
21:30 1013 29.91 842 24.86 0.1 32.2 49 -9.3 15.2
21:35 1013 29.91 842 24.86 -0.1 31.9 48 -9.8 14.4
21:40 1013 29.91 842 24.86 -0.1 31.8 49 -9.5 14.8
21:45 1013 29.91 842 24.86 -0.2 31.6 51 -9.3 15.3
21:50 1013 29.91 843 24.89 -0.4 31.3 52 -9.1 15.6
21:55 1013 29.91 843 24.89 -0.4 31.2 51 -9.5 14.9
22:00 1013 29.91 843 24.89 -0.5 31.2 53 -8.9 15.9
22:05 1013 29.91 843 24.89 -0.6 31 52 -9.3 15.3
22:10 1013 29.91 843 24.89 -0.5 31.1 53 -9.1 15.7
22:15 1013 29.91 843 24.89 -0.6 31 52 -9.3 15.2
22:20 1013 29.91 843 24.89 -0.5 31.1 51 -9.4 15.1
22:25 1013 29.91 843 24.89 -0.5 31.1 52 -9.1 15.6
22:30 1013 29.91 843 24.89 -0.6 30.9 51 -9.6 14.8
22:35 1013 29.91 843 24.89 -0.6 30.9 51 -9.5 14.9
22:40 1014 29.94 843 24.89 -0.7 30.7 57 -8.3 17.1
22:45 1013 29.91 843 24.89 -1.1 30.1 56 -8.7 16.4
22:50 1013 29.91 843 24.89 -1.4 29.5 55 -9.3 15.2
22:55 1013 29.91 843 24.89 -1.3 29.7 56 -9 15.8
23:00 1013 29.91 843 24.89 -1.7 28.9 57 -9.1 15.6
23:05 1013 29.91 843 24.89 -1.7 28.9 56 -9.3 15.3
23:10 1014 29.94 843 24.89 -1.7 29 57 -9.1 15.7
23:15 1014 29.94 843 24.89 -1.8 28.8 57 -9.1 15.6
23:20 1014 29.94 843 24.89 -1.6 29 56 -9.3 15.3
23:25 1014 29.94 843 24.89 -1.6 29.1 57 -9.2 15.5
23:30 1014 29.94 843 24.89 -1.8 28.8 55 -9.6 14.7
23:35 1013 29.91 843 24.89 -1.8 28.8 56 -9.5 15
23:40 1013 29.91 843 24.89 -2 28.4 58 -9.2 15.5
23:45 1013 29.91 843 24.89 -2.4 27.7 59 -9.4 15
23:50 1013 29.91 843 24.89 -2.1 28.2 56 -9.9 14.2
23:55 1013 29.91 842 24.86 -1.7 29 55 -9.6 14.8
24:00 1013 29.91 843 24.89 -1.8 28.7 56 -9.4 15